< < Back
Terminal Aerodrome Forecast


Current Version              Previous Versions:   1  2  3  4  5  6  7  8  9  

Terminal Aerodrome Forecast

036
FTUS42 KGSP 181700
TAFCLT
TAF
KCLT 181736Z 1818/1918 03008KT P6SM SCT040 OVC150
     FM182100 02008KT 6SM -RA BR OVC040
     FM190200 04012G18KT 6SM RA BR OVC020
     FM190500 03014G24KT 6SM RA BR OVC006
     FM191300 03015G24KT P6SM -RA OVC006=



Latest METAR

567
SAUS70 KWBC 182300 RRA
MTRCLT
METAR KCLT 182252Z 36008KT 5SM RA BR OVC070 10/08 A3026 RMK AO2 SLP248
P0006 T01000078


USA.gov is the U.S. government's official web portal to all federal, state and local government web resources and services.